Samos, Greece
Current Conditions -  °F | °C
As of 7:50 AM on Tuesday 23 Dec 2014 (Local Time) from LGSM Reporting Station
Few Clouds Few Clouds  
Wind Chill: 41°   Ceiling: Unl
Heat Index: 41°   Visibility: 6mi
Dew Point: 36°   Wind: 2mph
Humidity: 81%   Direction: 10°N
Pressure: 30.27"   Gusts: NA
Location:  37.76°N, 26.98°E
Report Text: LGSM 230450Z 01002KT 9999 FEW025 05/02 Q1025
Loading
Personal Weather Stations






























Interactive Weather Map New forecast layout! Learn more

10-Day Weather Forecast

Advertisements
Track Severe Weather on mobile